ADDS METAR Data INFO
IDs: Format: Raw Decoded Include TAF

Data at: 0144 UTC 26 Feb 2018

KMCI 260053Z 20007KT 10SM FEW200 06/M08 A3007 RMK AO2 SLP191 T00561078
KMCI 252353Z 22005KT 10SM SCT100 BKN200 07/M07 A3007 RMK AO2 SLP188 T00671072 10106 20061 53007
KMCI 252253Z COR 20005KT 10SM FEW110 SCT200 09/M06 A3005 RMK AO2 SLP182 T00941061
KMCI 252153Z 22008KT 10SM FEW080 BKN110 BKN200 09/M07 A3005 RMK AO2 SLP179 T00941067
KMCI 252053Z 22009G16KT 10SM FEW090 FEW120 SCT200 11/M07 A3004 RMK AO2 SLP178 T01061067 56009
KMCI 251953Z 24008G15KT 10SM FEW090 SCT120 SCT200 10/M06 A3005 RMK AO2 SLP178 T01001056
KMCI 251853Z 24008KT 10SM SCT120 SCT200 08/M04 A3005 RMK AO2 SLP181 T00831039
KMCI 251753Z 22011KT 10SM FEW120 SCT200 07/M03 A3007 RMK AO2 SLP188 T00671033 10067 21050 50014
KMCI 251653Z 25009KT 10SM FEW120 SCT200 05/M03 A3008 RMK AO2 SLP191 T00501028
KMCI 251553Z 23010KT 10SM SCT200 02/M03 A3006 RMK AO2 SLP186 T00221033
KMCI 251453Z 23009KT 10SM FEW200 00/M04 A3003 RMK AO2 SLP176 T00001044 53017
KMCI 251353Z 21004KT 10SM FEW200 M04/M06 A2999 RMK AO2 SLP165 T10391056
KMCI 251253Z 24007KT 10SM CLR M04/M07 A2998 RMK AO2 SLP161 T10441072
KMCI 251153Z 23008KT 10SM CLR M04/M07 A2998 RMK AO2 SLP160 70004 T10391067 11006 21044 53009
KMCI 251053Z 23007KT 10SM CLR M04/M07 A2997 RMK AO2 SLP155 T10391072
KMCI 250953Z 27006KT 10SM CLR M03/M07 A2995 RMK AO2 SLP151 T10281067
KMCI 250853Z 27006KT 10SM CLR M02/M06 A2995 RMK AO2 SLP149 T10171061 50015
KMCI 250753Z 28008KT 10SM CLR M01/M04 A2996 RMK AO2 SLP151 T10061044
KMCI 250653Z 26006KT 10SM CLR M01/M03 A2994 RMK AO2 SLP143 T10061028
KMCI 250553Z 23010KT 9SM CLR M01/M02 A2991 RMK AO2 SLP133 T10061022 10011 21006 400441006 53013
KMCI 250453Z 23010KT 10SM CLR M01/M02 A2988 RMK AO2 SLP126 T10061022
KMCI 250353Z 25008KT 10SM CLR 00/M02 A2987 RMK AO2 SLP122 T00001022
KMCI 250323Z 26006KT 10SM SCT020 01/M02 A2987 RMK AO2 T00061017
KMCI 250253Z 27011G23KT 10SM OVC018 01/M02 A2987 RMK AO2 SLP120 T00111022 52038
KMCI 250153Z 28012G22KT 10SM OVC019 01/M02 A2983 RMK AO2 SLP107 T00111017
KMCI 250053Z 28010G16KT 10SM OVC019 01/M01 A2979 RMK AO2 SLP094 T00111006
KMCI 250029Z 28010KT 10SM OVC016 01/M01 A2977 RMK AO2 T00111006
KMCI 242353Z 29010KT 10SM FEW008 BKN013 OVC020 01/00 A2975 RMK AO2 DZE2259 SLP081 P0000 60003 T00110000 10044 20011 53024
KMCI 242351Z 29010KT 10SM SCT010 OVC016 02/00 A2975 RMK AO2 DZE2259 P0000
KMCI 242259Z 29011KT 10SM BKN006 BKN013 OVC037 02/01 A2973 RMK AO2 DZE59 P0000 T00170011
KMCI 242253Z 30009KT 2SM -DZ BR BKN004 OVC037 02/02 A2972 RMK AO2 SFC VIS 5 SLP071 P0001 T00220017
KMCI 242216Z 29009KT 2SM -DZ BR OVC004 02/02 A2971 RMK AO2 P0001 T00220017
KMCI 242153Z 28009KT 2SM -DZ BR BKN005 OVC010 03/03 A2969 RMK AO2 SFC VIS 2 1/2 SLP060 P0000 T00330028
KMCI 242142Z 28012KT 2SM -DZ BR BKN004 OVC009 03/03 A2969 RMK AO2 SFC VIS 5 P0000 T00330028
KMCI 242053Z 29007KT 1SM R19R/P6000FT -DZ BR OVC003 03/03 A2968 RMK AO2 SFC VIS 5 RAB1955E45DZB48 SLP055 P0002 60002 T00330033 56030
KMCI 241953Z 23005KT 1/4SM R19R/5000VP6000FT BR OVC002 04/04 A2970 RMK AO2 SFC VIS 3 RAB27E41 SLP061 P0000 T00390039
KMCI 241926Z 00000KT 1/2SM R19R/P6000FT BR OVC003 04/03 A2970 RMK AO2 SFC VIS 4 PRESFR T00390033
KMCI 241918Z 00000KT 1SM R19R/P6000FT BR OVC003 04/03 A2971 RMK AO2 SFC VIS 4 T00390033
KMCI 241853Z 20005KT 2SM OVC004 04/04 A2974 RMK AO2 SFC VIS 8 SLP076 T00440039
KMCI 241753Z 14015KT 2SM OVC004 03/03 A2977 RMK AO2 SFC VIS 7 DZE49 SLP086 P0000 60001 T00330028 10033 20006 57043
KMCI 241702Z 12014KT 2SM -DZ BR OVC004 02/02 A2981 RMK AO2 SFC VIS 4 PRESFR P0000 T00220017
KMCI 241653Z 12011KT 1 1/2SM -DZ BR OVC004 02/02 A2983 RMK AO2 SFC VIS 3 SLP107 P0000 T00220017
KMCI 241553Z 11010KT 1 1/2SM -DZ BR OVC004 02/01 A2984 RMK AO2 SFC VIS 3 SLP111 P0000 T00170011
KMCI 241453Z 10010KT 1 1/4SM R19R/4500VP6000FT -DZ BR OVC004 01/01 A2990 RMK AO2 TWR VIS 1 1/2 PRESFR SLP132 P0001 60001 T00110006 58022
KMCI 241353Z 10011KT 1 1/2SM -DZ BR OVC004 01/00 A2993 RMK AO2 SLP143 P0000 T00110000